Time;durP1;ratioP1;P1;durP2;ratioP2;P2;SDS_P1;SDS_P2;PMS_P1;PMS_P2;Temp;Humidity;BMP_temperature;BMP_pressure;BME280_temperature;BME280_humidity;BME280_pressure;Samples;Min_cycle;Max_cycle;Signal;HPM_P1;HPM_P2
2021/07/09 00:02:16;;;;;;;6.95;4.43;;;20.00;99.90;;;;;;4143546;28;20065;-72
2021/07/09 00:04:17;;;;;;;6.43;4.85;;;20.00;99.90;;;;;;4144171;28;20057;-72
2021/07/09 00:06:20;;;;;;;7.47;5.15;;;20.00;99.90;;;;;;4143629;28;20771;-72
2021/07/09 00:08:21;;;;;;;6.93;4.90;;;20.00;99.90;;;;;;4142162;28;20068;-72
2021/07/09 00:10:21;;;;;;;7.20;4.88;;;20.00;99.90;;;;;;4142691;28;20100;-72
2021/07/09 00:12:22;;;;;;;6.35;5.03;;;20.00;99.90;;;;;;4141540;28;20052;-72
2021/07/09 00:14:26;;;;;;;9.18;6.10;;;20.00;99.90;;;;;;4135086;28;20510;-72
2021/07/09 00:16:27;;;;;;;8.07;5.47;;;20.00;99.90;;;;;;4144199;28;20452;-72
2021/07/09 00:18:28;;;;;;;7.47;5.15;;;19.90;99.90;;;;;;4141558;28;20034;-72
2021/07/09 00:20:28;;;;;;;7.90;4.90;;;19.90;99.90;;;;;;4143895;28;20280;-72
2021/07/09 00:22:29;;;;;;;6.10;4.80;;;19.90;99.90;;;;;;4143702;28;20046;-72
2021/07/09 00:24:30;;;;;;;8.88;6.13;;;19.90;99.90;;;;;;4141322;28;20046;-72
2021/07/09 00:26:32;;;;;;;10.18;6.57;;;19.90;99.90;;;;;;4142487;28;20037;-72
2021/07/09 00:28:32;;;;;;;8.60;6.15;;;19.80;99.90;;;;;;4143760;28;20095;-72
2021/07/09 00:30:33;;;;;;;7.20;5.38;;;19.80;99.90;;;;;;4143079;28;20421;-72
2021/07/09 00:32:34;;;;;;;6.93;5.18;;;19.70;99.90;;;;;;4141752;28;20038;-72
2021/07/09 00:34:34;;;;;;;10.23;5.28;;;19.80;99.90;;;;;;4141347;28;20481;-72
2021/07/09 00:36:36;;;;;;;7.82;5.10;;;19.80;99.90;;;;;;4143355;28;20044;-72
2021/07/09 00:38:37;;;;;;;10.40;5.43;;;19.80;99.90;;;;;;4125326;28;20030;-72
2021/07/09 00:40:38;;;;;;;7.05;5.07;;;19.80;99.90;;;;;;4143394;28;20064;-72
2021/07/09 00:42:38;;;;;;;6.30;5.03;;;19.80;99.90;;;;;;4143090;28;20038;-72
2021/07/09 00:44:39;;;;;;;6.03;4.97;;;19.90;99.90;;;;;;4138193;28;20383;-72
2021/07/09 00:46:41;;;;;;;7.57;5.95;;;19.90;99.90;;;;;;4143514;28;20030;-72
2021/07/09 00:48:41;;;;;;;8.38;5.70;;;19.90;99.90;;;;;;4143019;28;20478;-72
2021/07/09 00:50:42;;;;;;;7.22;5.78;;;19.90;99.90;;;;;;4143554;28;20343;-72
2021/07/09 00:52:43;;;;;;;8.63;5.82;;;19.90;99.90;;;;;;4142813;28;20038;-72
2021/07/09 00:54:44;;;;;;;8.30;5.70;;;19.90;99.90;;;;;;4134869;28;20088;-72
2021/07/09 00:56:45;;;;;;;7.45;5.10;;;20.00;99.90;;;;;;4143034;28;20114;-72
2021/07/09 00:58:48;;;;;;;8.07;4.75;;;20.00;99.90;;;;;;4139043;28;20442;-72
2021/07/09 01:00:48;;;;;;;7.15;4.57;;;20.00;99.90;;;;;;4141037;28;20394;-72
2021/07/09 01:02:49;;;;;;;7.43;5.60;;;20.00;99.90;;;;;;4142741;28;20038;-72
2021/07/09 01:04:56;;;;;;;11.93;7.00;;;20.00;99.90;;;;;;4142395;28;20037;-72
2021/07/09 01:06:57;;;;;;;8.35;5.95;;;20.00;99.90;;;;;;4141900;28;20066;-72
2021/07/09 01:08:57;;;;;;;7.35;5.47;;;20.00;99.90;;;;;;4138941;28;20549;-72
2021/07/09 01:10:58;;;;;;;11.95;5.85;;;20.00;99.90;;;;;;4138710;28;20038;-72
2021/07/09 01:12:59;;;;;;;9.55;5.63;;;20.00;99.90;;;;;;4132462;28;20046;-72
2021/07/09 01:14:59;;;;;;;9.13;6.20;;;19.90;99.90;;;;;;4142442;28;20048;-72
2021/07/09 01:17:01;;;;;;;9.57;5.93;;;19.90;99.90;;;;;;4142622;28;20034;-72
2021/07/09 01:19:02;;;;;;;9.45;6.05;;;19.90;99.90;;;;;;4139717;28;20456;-72
2021/07/09 01:21:09;;;;;;;8.05;5.72;;;19.90;99.90;;;;;;4135232;28;20148;-72
2021/07/09 01:23:10;;;;;;;9.25;6.88;;;19.80;99.90;;;;;;4141930;28;20065;-72
2021/07/09 01:25:17;;;;;;;9.45;6.43;;;19.90;99.90;;;;;;4142705;28;20285;-72
2021/07/09 01:27:17;;;;;;;12.18;7.53;;;19.80;99.90;;;;;;4142611;28;20045;-72
2021/07/09 01:29:18;;;;;;;9.85;6.40;;;19.80;99.90;;;;;;4142536;28;20030;-72
2021/07/09 01:31:19;;;;;;;10.57;6.38;;;19.80;99.90;;;;;;4141247;28;20041;-72
2021/07/09 01:33:19;;;;;;;11.48;6.88;;;19.80;99.90;;;;;;4142014;28;20139;-72
2021/07/09 01:35:24;;;;;;;8.18;6.18;;;19.70;99.90;;;;;;4132690;28;20080;-72
2021/07/09 01:37:24;;;;;;;6.53;5.53;;;19.70;99.90;;;;;;4134105;28;20271;-72
2021/07/09 01:39:25;;;;;;;6.85;5.47;;;19.70;99.90;;;;;;4135034;28;20046;-72
2021/07/09 01:41:26;;;;;;;8.60;6.20;;;19.80;99.90;;;;;;4142294;28;20057;-72
2021/07/09 01:43:27;;;;;;;9.35;6.40;;;19.80;99.90;;;;;;4142336;28;20398;-72
2021/07/09 01:45:28;;;;;;;9.18;6.40;;;19.80;99.90;;;;;;4129994;28;20200;-72
2021/07/09 01:47:28;;;;;;;9.73;6.25;;;19.80;99.90;;;;;;4141371;28;20371;-72
2021/07/09 01:49:29;;;;;;;7.18;5.80;;;19.80;99.90;;;;;;4139570;28;20037;-72
2021/07/09 01:51:31;;;;;;;7.55;5.75;;;19.80;99.90;;;;;;4138747;28;20368;-72
2021/07/09 01:53:32;;;;;;;8.55;6.28;;;19.90;99.90;;;;;;4142257;28;20393;-73
2021/07/09 01:55:33;;;;;;;8.77;5.70;;;19.90;99.90;;;;;;4139367;28;20113;-72
2021/07/09 01:57:34;;;;;;;8.43;6.05;;;19.90;99.90;;;;;;4142065;28;20121;-72
2021/07/09 01:59:34;;;;;;;9.35;6.90;;;19.90;99.90;;;;;;4140581;28;20084;-72
2021/07/09 02:01:35;;;;;;;8.75;5.85;;;19.90;99.90;;;;;;4135120;28;20034;-72
2021/07/09 02:03:35;;;;;;;8.70;6.50;;;19.90;99.90;;;;;;4140729;28;20037;-72
2021/07/09 02:05:36;;;;;;;9.63;6.45;;;20.00;99.90;;;;;;4138029;28;20038;-72
2021/07/09 02:07:37;;;;;;;10.43;7.20;;;19.90;99.90;;;;;;4141401;28;20433;-72
2021/07/09 02:09:41;;;;;;;8.52;6.63;;;19.90;99.90;;;;;;4140542;28;20396;-72
2021/07/09 02:11:42;;;;;;;10.10;7.25;;;20.00;99.90;;;;;;4131860;28;20061;-72
2021/07/09 02:13:42;;;;;;;8.35;6.78;;;19.90;99.90;;;;;;4140357;28;20124;-72
2021/07/09 02:15:45;;;;;;;10.80;7.25;;;19.90;99.90;;;;;;4134724;28;20507;-72
2021/07/09 02:17:46;;;;;;;10.25;7.28;;;19.90;99.90;;;;;;4140349;28;20032;-72
2021/07/09 02:19:48;;;;;;;8.98;7.00;;;19.90;99.90;;;;;;4141007;28;20104;-72
2021/07/09 02:21:49;;;;;;;9.73;7.47;;;19.80;99.90;;;;;;4140516;28;20533;-72
2021/07/09 02:23:50;;;;;;;14.68;8.63;;;19.80;99.90;;;;;;4141782;28;20044;-72
2021/07/09 02:25:50;;;;;;;12.23;8.93;;;19.70;99.90;;;;;;4133436;28;20038;-72
2021/07/09 02:27:53;;;;;;;12.60;8.52;;;19.60;99.90;;;;;;4139058;28;20034;-72
2021/07/09 02:29:54;;;;;;;;;;;19.60;99.90;;;;;;4141906;28;20997;-72
2021/07/09 02:31:54;;;;;;;12.15;8.07;;;19.50;99.90;;;;;;4137372;28;19921;-72
2021/07/09 02:33:55;;;;;;;10.85;7.68;;;19.50;99.90;;;;;;4139968;28;20038;-72
2021/07/09 02:35:55;;;;;;;12.35;8.32;;;19.50;99.90;;;;;;4141257;28;20037;-72
2021/07/09 02:37:57;;;;;;;11.27;8.68;;;19.50;99.90;;;;;;4141965;28;20540;-72
2021/07/09 02:39:58;;;;;;;11.43;8.50;;;19.50;99.90;;;;;;4140234;28;20533;-72
2021/07/09 02:41:59;;;;;;;13.00;9.38;;;19.50;99.90;;;;;;4133511;28;20053;-72
2021/07/09 02:44:00;;;;;;;11.02;8.80;;;19.40;99.90;;;;;;4140426;28;20034;-72
2021/07/09 02:46:00;;;;;;;12.57;8.90;;;19.40;99.90;;;;;;4141284;28;20137;-72
2021/07/09 02:48:01;;;;;;;11.32;7.28;;;19.40;99.90;;;;;;4141084;28;20040;-72
2021/07/09 02:50:04;;;;;;;12.20;8.73;;;19.40;99.90;;;;;;4141426;28;20336;-72
2021/07/09 02:52:05;;;;;;;11.25;7.93;;;19.40;99.90;;;;;;4139888;28;20137;-72
2021/07/09 02:54:06;;;;;;;12.18;8.32;;;19.50;99.90;;;;;;4139763;28;20046;-72
2021/07/09 02:56:06;;;;;;;11.27;8.63;;;19.40;99.90;;;;;;4135248;28;20046;-72
2021/07/09 02:58:07;;;;;;;12.45;8.93;;;19.40;99.90;;;;;;4141156;28;20478;-72
2021/07/09 03:00:10;;;;;;;12.48;9.35;;;19.50;99.90;;;;;;4141616;28;20091;-72
2021/07/09 03:02:11;;;;;;;13.27;9.40;;;19.40;99.90;;;;;;4139451;28;20131;-72
2021/07/09 03:04:12;;;;;;;13.73;9.93;;;19.40;99.90;;;;;;4141278;28;20037;-72
2021/07/09 03:06:13;;;;;;;13.90;9.25;;;19.30;99.90;;;;;;4135198;28;20042;-72
2021/07/09 03:08:14;;;;;;;17.42;9.98;;;19.30;99.90;;;;;;4138873;28;20052;-72
2021/07/09 03:10:14;;;;;;;13.00;9.40;;;19.30;99.90;;;;;;4141037;28;20034;-72
2021/07/09 03:12:15;;;;;;;12.40;9.15;;;19.30;99.90;;;;;;4136940;28;20037;-72
2021/07/09 03:14:15;;;;;;;13.75;9.68;;;19.30;99.90;;;;;;4139712;28;20473;-72
2021/07/09 03:16:16;;;;;;;12.88;9.95;;;19.30;99.90;;;;;;4130692;28;20073;-72
2021/07/09 03:18:17;;;;;;;14.90;10.32;;;19.30;99.90;;;;;;4141467;28;20030;-72
2021/07/09 03:20:17;;;;;;;15.85;11.60;;;19.20;99.90;;;;;;4143732;28;20042;-72
2021/07/09 03:22:18;;;;;;;13.90;10.27;;;19.20;99.90;;;;;;4137153;28;20475;-72
2021/07/09 03:24:18;;;;;;;20.15;11.35;;;19.10;99.90;;;;;;4143435;28;20108;-72
2021/07/09 03:26:19;;;;;;;18.38;11.45;;;19.10;99.90;;;;;;4142098;28;20458;-72
2021/07/09 03:28:19;;;;;;;18.80;10.82;;;19.10;99.90;;;;;;4142968;28;20578;-72
2021/07/09 03:30:20;;;;;;;17.35;11.95;;;19.10;99.90;;;;;;4144888;28;20042;-72
2021/07/09 03:32:21;;;;;;;19.27;11.18;;;19.00;99.90;;;;;;4132325;28;20034;-72
2021/07/09 03:34:21;;;;;;;14.68;11.13;;;19.00;99.90;;;;;;4144360;28;20044;-72
2021/07/09 03:36:22;;;;;;;16.48;11.48;;;19.00;99.90;;;;;;4141128;28;20061;-72
2021/07/09 03:38:23;;;;;;;17.60;12.68;;;19.00;99.90;;;;;;4142412;28;20165;-72
2021/07/09 03:40:23;;;;;;;15.65;11.77;;;19.00;99.90;;;;;;4144803;28;20495;-72
2021/07/09 03:42:24;;;;;;;15.90;10.85;;;19.00;99.90;;;;;;4142944;28;20514;-72
2021/07/09 03:44:24;;;;;;;20.25;12.50;;;19.00;99.90;;;;;;4144398;28;20042;-72
2021/07/09 03:46:25;;;;;;;13.68;9.52;;;19.00;99.90;;;;;;4141941;28;20478;-72
2021/07/09 03:48:25;;;;;;;15.82;12.32;;;19.10;99.90;;;;;;4138890;28;20042;-72
2021/07/09 03:50:26;;;;;;;15.80;11.60;;;19.00;99.90;;;;;;4143830;28;20037;-72
2021/07/09 03:52:27;;;;;;;15.27;12.05;;;19.00;99.90;;;;;;4140819;28;20087;-72
2021/07/09 03:54:27;;;;;;;20.60;12.63;;;18.90;99.90;;;;;;4144504;28;20050;-72
2021/07/09 03:56:31;;;;;;;15.57;10.68;;;18.90;99.90;;;;;;4143145;28;20946;-72
2021/07/09 03:58:32;;;;;;;16.23;12.45;;;18.90;99.90;;;;;;4144284;28;20038;-72
2021/07/09 04:00:33;;;;;;;14.57;10.30;;;18.90;99.90;;;;;;4143910;28;20213;-72
2021/07/09 04:02:34;;;;;;;14.35;10.43;;;18.90;99.90;;;;;;4142463;28;20108;-72
2021/07/09 04:04:34;;;;;;;17.23;11.93;;;18.90;99.90;;;;;;4144279;28;20046;-72
2021/07/09 04:06:36;;;;;;;16.73;11.75;;;18.90;99.90;;;;;;4143196;28;20046;-72
2021/07/09 04:08:37;;;;;;;15.65;12.25;;;18.90;99.90;;;;;;4143438;28;20030;-72
2021/07/09 04:10:37;;;;;;;18.85;11.70;;;18.80;99.90;;;;;;4144251;28;20119;-72
2021/07/09 04:12:38;;;;;;;14.52;11.00;;;18.90;99.90;;;;;;4134693;28;20034;-72
2021/07/09 04:14:39;;;;;;;14.68;10.48;;;18.90;99.90;;;;;;4143328;28;20038;-72
2021/07/09 04:16:39;;;;;;;17.63;11.45;;;18.90;99.90;;;;;;4143866;28;20088;-72
2021/07/09 04:18:40;;;;;;;15.02;11.48;;;18.90;99.90;;;;;;4137947;28;20045;-72
2021/07/09 04:20:40;;;;;;;15.40;12.02;;;18.90;99.90;;;;;;4143696;28;20470;-72
2021/07/09 04:22:42;;;;;;;18.60;11.75;;;18.90;99.90;;;;;;4141843;28;20037;-72
2021/07/09 04:24:42;;;;;;;15.80;11.63;;;19.00;99.90;;;;;;4142814;28;20038;-72
2021/07/09 04:26:43;;;;;;;15.38;10.07;;;18.90;99.90;;;;;;4138760;28;20254;-72
2021/07/09 04:28:44;;;;;;;13.27;10.45;;;18.90;99.90;;;;;;4142193;28;20074;-72
2021/07/09 04:30:44;;;;;;;23.92;12.65;;;18.90;99.90;;;;;;4142314;28;20061;-72
2021/07/09 04:32:45;;;;;;;15.55;11.48;;;18.90;99.90;;;;;;4137283;28;20068;-72
2021/07/09 04:34:45;;;;;;;15.63;10.90;;;18.90;99.90;;;;;;4142510;28;20406;-72
2021/07/09 04:36:46;;;;;;;14.52;11.30;;;18.90;99.90;;;;;;4141385;28;20037;-72
2021/07/09 04:38:47;;;;;;;19.85;10.80;;;18.80;99.90;;;;;;4139669;28;20456;-72
2021/07/09 04:40:47;;;;;;;15.35;11.25;;;18.80;99.90;;;;;;4142121;28;20026;-72
2021/07/09 04:42:48;;;;;;;18.20;12.38;;;18.70;99.90;;;;;;4142646;28;20034;-72
2021/07/09 04:44:48;;;;;;;18.15;11.98;;;18.70;99.90;;;;;;4143688;28;20069;-72
2021/07/09 04:46:49;;;;;;;17.98;10.93;;;18.70;99.90;;;;;;4143704;28;20042;-72
2021/07/09 04:48:49;;;;;;;16.25;11.10;;;18.70;99.90;;;;;;4142176;28;20486;-72
2021/07/09 04:50:50;;;;;;;14.18;10.65;;;18.70;99.90;;;;;;4143545;28;20030;-72
2021/07/09 04:52:50;;;;;;;16.10;10.52;;;18.70;99.90;;;;;;4143216;28;20041;-72
2021/07/09 04:54:51;;;;;;;15.25;10.82;;;18.80;99.90;;;;;;4141910;28;20411;-72
2021/07/09 04:56:52;;;;;;;14.60;10.68;;;18.80;99.90;;;;;;4143190;28;20376;-72
2021/07/09 04:58:52;;;;;;;12.48;9.00;;;18.80;99.90;;;;;;4128757;28;20303;-72
2021/07/09 05:00:53;;;;;;;11.70;8.77;;;18.90;99.90;;;;;;4134860;28;20030;-72
2021/07/09 05:02:57;;;;;;;14.15;9.25;;;18.90;99.90;;;;;;4143150;28;20084;-72
2021/07/09 05:04:57;;;;;;;11.70;8.90;;;19.00;99.90;;;;;;4125741;28;20454;-72
2021/07/09 05:06:58;;;;;;;12.30;9.02;;;19.00;99.90;;;;;;4133966;28;20034;-72
2021/07/09 05:08:59;;;;;;;12.70;8.80;;;19.10;99.90;;;;;;4130930;28;20178;-72
2021/07/09 05:10:59;;;;;;;13.10;8.80;;;19.10;99.90;;;;;;4125433;28;20460;-72
2021/07/09 05:13:00;;;;;;;11.68;9.00;;;19.10;99.90;;;;;;4130587;28;20121;-72
2021/07/09 05:15:01;;;;;;;12.00;9.77;;;19.20;99.90;;;;;;4143420;28;20055;-72
2021/07/09 05:17:01;;;;;;;10.27;8.23;;;19.30;99.90;;;;;;4142436;28;20558;-72
2021/07/09 05:19:05;;;;;;;10.60;8.38;;;19.30;99.90;;;;;;4141618;28;20096;-72
2021/07/09 05:21:05;;;;;;;17.90;11.77;;;19.20;99.90;;;;;;4143130;28;20034;-72
2021/07/09 05:23:06;;;;;;;13.50;10.00;;;19.30;99.90;;;;;;4129750;28;20113;-73
2021/07/09 05:25:08;;;;;;;14.25;10.10;;;19.30;99.90;;;;;;4142714;28;20045;-73
2021/07/09 05:27:08;;;;;;;12.63;8.77;;;19.30;99.90;;;;;;4143822;28;20172;-72
2021/07/09 05:29:09;;;;;;;16.77;9.07;;;19.30;99.90;;;;;;4134619;28;20102;-72
2021/07/09 05:31:11;;;;;;;13.77;10.23;;;19.30;99.90;;;;;;4133704;28;20042;-72
2021/07/09 05:33:14;;;;;;;13.85;9.60;;;19.40;99.90;;;;;;4134668;28;20042;-72
2021/07/09 05:35:14;;;;;;;11.77;8.93;;;19.40;99.90;;;;;;4120152;28;20042;-72
2021/07/09 05:37:15;;;;;;;13.48;9.80;;;19.40;99.90;;;;;;4140413;28;20052;-72
2021/07/09 05:39:17;;;;;;;12.95;9.05;;;19.40;99.90;;;;;;4159764;28;20037;-72
2021/07/09 05:41:17;;;;;;;16.20;10.25;;;19.40;99.90;;;;;;4144859;28;20108;-72
2021/07/09 05:43:20;;;;;;;12.60;9.65;;;19.40;99.90;;;;;;4156279;28;20033;-73
2021/07/09 05:45:21;;;;;;;14.27;10.82;;;19.40;99.90;;;;;;4142414;28;21140;-72
2021/07/09 05:47:21;;;;;;;18.30;12.07;;;19.40;99.90;;;;;;4157962;28;20159;-72
2021/07/09 05:49:22;;;;;;;16.30;10.60;;;19.40;99.90;;;;;;4152962;28;20040;-73
2021/07/09 05:51:23;;;;;;;15.50;10.35;;;19.40;99.90;;;;;;4141340;28;20041;-72
2021/07/09 05:53:23;;;;;;;14.73;10.77;;;19.40;99.90;;;;;;4129613;28;20037;-72
2021/07/09 05:55:24;;;;;;;15.50;9.98;;;19.40;99.90;;;;;;4142072;28;20068;-72
2021/07/09 05:57:24;;;;;;;17.05;11.45;;;19.40;99.90;;;;;;4139701;28;20041;-72
2021/07/09 05:59:25;;;;;;;19.45;12.40;;;19.40;99.90;;;;;;4146168;28;20038;-72
2021/07/09 06:01:25;;;;;;;13.82;9.77;;;19.40;99.90;;;;;;4141156;28;20049;-72
2021/07/09 06:03:26;;;;;;;15.68;10.07;;;19.40;99.90;;;;;;4141216;28;20041;-72
2021/07/09 06:05:26;;;;;;;18.58;11.18;;;19.40;99.90;;;;;;4140116;28;20034;-72
2021/07/09 06:07:27;;;;;;;16.58;12.00;;;19.40;99.90;;;;;;4157137;28;20087;-72
2021/07/09 06:09:29;;;;;;;15.75;10.52;;;19.30;99.90;;;;;;4134687;28;20037;-72
2021/07/09 06:11:30;;;;;;;15.05;10.45;;;19.30;99.90;;;;;;4152802;28;20022;-72
2021/07/09 06:13:30;;;;;;;15.02;10.65;;;19.40;99.90;;;;;;4148606;28;20042;-72
2021/07/09 06:15:31;;;;;;;14.27;10.32;;;19.40;99.90;;;;;;4136093;28;20038;-72
2021/07/09 06:17:32;;;;;;;15.25;10.52;;;19.40;99.90;;;;;;4141455;28;20055;-72
2021/07/09 06:19:32;;;;;;;15.43;10.50;;;19.40;99.90;;;;;;4134103;28;20042;-72
2021/07/09 06:21:33;;;;;;;15.27;11.07;;;19.40;99.90;;;;;;4135700;28;20522;-72
2021/07/09 06:23:34;;;;;;;16.30;12.32;;;19.50;99.90;;;;;;4118229;28;20030;-72
2021/07/09 06:25:34;;;;;;;17.40;12.00;;;19.40;99.90;;;;;;4122905;28;20459;-72
2021/07/09 06:27:35;;;;;;;15.18;11.13;;;19.50;99.90;;;;;;4135916;28;20050;-72
2021/07/09 06:29:35;;;;;;;18.55;12.27;;;19.50;99.90;;;;;;4130796;28;20058;-72
2021/07/09 06:31:36;;;;;;;20.48;12.70;;;19.50;99.90;;;;;;4136021;28;20030;-72
2021/07/09 06:33:37;;;;;;;19.58;11.68;;;19.40;99.90;;;;;;4135194;28;20037;-72
2021/07/09 06:35:39;;;;;;;16.75;12.00;;;19.50;99.90;;;;;;4137463;28;20060;-72
2021/07/09 06:37:40;;;;;;;18.73;11.63;;;19.40;99.90;;;;;;4134803;28;20360;-72
2021/07/09 06:39:41;;;;;;;18.83;13.10;;;19.50;99.90;;;;;;4137672;28;20041;-72
2021/07/09 06:41:41;;;;;;;17.95;12.45;;;19.50;99.90;;;;;;4129558;28;20030;-72
2021/07/09 06:43:42;;;;;;;19.98;12.95;;;19.50;99.90;;;;;;4138619;28;20030;-72
2021/07/09 06:45:43;;;;;;;18.25;12.98;;;19.50;99.90;;;;;;4131440;28;20442;-72
2021/07/09 06:47:44;;;;;;;18.40;11.80;;;19.50;99.90;;;;;;4135639;28;20038;-72
2021/07/09 06:49:44;;;;;;;16.67;11.10;;;19.60;99.90;;;;;;4135647;28;20041;-72
2021/07/09 06:51:45;;;;;;;19.42;13.18;;;19.60;99.90;;;;;;4134414;28;20041;-72
2021/07/09 06:53:47;;;;;;;23.27;15.70;;;19.60;99.90;;;;;;4134705;28;20042;-72
2021/07/09 06:55:48;;;;;;;19.45;13.15;;;19.60;99.90;;;;;;4135704;28;20092;-72
2021/07/09 06:57:48;;;;;;;20.55;12.65;;;19.60;99.90;;;;;;4134747;28;20053;-72
2021/07/09 06:59:49;;;;;;;15.48;10.48;;;19.60;99.90;;;;;;4133391;28;20061;-72
2021/07/09 07:01:49;;;;;;;21.00;13.18;;;19.70;99.90;;;;;;4133454;28;20049;-72
2021/07/09 07:03:50;;;;;;;14.07;9.80;;;19.70;99.90;;;;;;4134742;28;20041;-72
2021/07/09 07:06:12;;;;;;;16.30;12.30;;;19.70;99.90;;;;;;4068036;28;20179;-72
2021/07/09 07:08:32;;;;;;;20.13;12.10;;;19.80;99.90;;;;;;4092160;28;20446;-72
2021/07/09 07:10:54;;;;;;;18.50;12.65;;;19.80;99.90;;;;;;4048255;28;20137;-72
2021/07/09 07:13:06;;;;;;;21.00;12.93;;;19.90;99.90;;;;;;4129562;28;20421;-73
2021/07/09 07:15:08;;;;;;;18.48;13.10;;;19.80;99.90;;;;;;4134341;28;20034;-73
2021/07/09 07:17:10;;;;;;;19.25;13.25;;;19.80;99.90;;;;;;4131709;28;20057;-73
2021/07/09 07:19:11;;;;;;;16.02;11.35;;;19.90;99.90;;;;;;4132280;28;20446;-72
2021/07/09 07:21:11;;;;;;;15.70;10.90;;;19.80;99.90;;;;;;4130111;28;20046;-73
2021/07/09 07:23:17;;;;;;;21.77;13.27;;;19.90;99.90;;;;;;4131988;28;20489;-72
2021/07/09 07:25:18;;;;;;;14.82;10.63;;;19.90;99.90;;;;;;4133243;28;20562;-72
2021/07/09 07:27:21;;;;;;;18.10;11.18;;;20.00;99.90;;;;;;4132999;28;20054;-72
2021/07/09 07:29:21;;;;;;;17.73;12.82;;;20.00;99.90;;;;;;4133286;28;20048;-72
2021/07/09 07:31:22;;;;;;;17.83;10.73;;;20.00;99.90;;;;;;4121693;28;20747;-72
2021/07/09 07:33:22;;;;;;;14.43;10.93;;;20.10;99.90;;;;;;4131968;28;20088;-72
2021/07/09 07:35:23;;;;;;;19.77;13.05;;;20.10;99.90;;;;;;4132588;28;20046;-73
2021/07/09 07:37:24;;;;;;;15.60;10.40;;;20.20;99.90;;;;;;4134280;28;20081;-73
2021/07/09 07:39:25;;;;;;;18.42;11.18;;;20.20;99.90;;;;;;4130580;28;20096;-73
2021/07/09 07:41:25;;;;;;;17.00;10.73;;;20.30;99.90;;;;;;4130919;28;20072;-72
2021/07/09 07:43:26;;;;;;;15.68;10.68;;;20.40;99.90;;;;;;4118924;28;20035;-72
2021/07/09 07:45:27;;;;;;;14.32;10.38;;;20.40;99.90;;;;;;4134771;28;20044;-72
2021/07/09 07:47:27;;;;;;;15.68;10.00;;;20.50;99.90;;;;;;4132893;28;20045;-72
2021/07/09 07:49:28;;;;;;;14.13;9.70;;;20.50;99.90;;;;;;4131859;28;20104;-72
2021/07/09 07:51:28;;;;;;;13.52;9.40;;;20.60;99.90;;;;;;4132917;28;20297;-72
2021/07/09 07:53:34;;;;;;;11.88;7.95;;;20.60;99.90;;;;;;4134304;28;20042;-72
2021/07/09 07:55:37;;;;;;;12.13;8.07;;;20.70;99.90;;;;;;4131519;28;20034;-71
2021/07/09 07:57:38;;;;;;;12.00;8.20;;;20.70;99.90;;;;;;4130962;28;20053;-71
2021/07/09 07:59:38;;;;;;;9.70;7.72;;;20.80;99.90;;;;;;4130496;28;20084;-71
2021/07/09 08:01:39;;;;;;;8.57;6.85;;;20.90;99.90;;;;;;4131818;28;20034;-72
2021/07/09 08:03:39;;;;;;;11.45;7.47;;;20.90;99.90;;;;;;4135392;28;20073;-72
2021/07/09 08:05:40;;;;;;;10.13;7.05;;;21.00;99.90;;;;;;4132203;28;20104;-72
2021/07/09 08:07:43;;;;;;;9.57;6.85;;;21.10;99.90;;;;;;4134909;28;20038;-71
2021/07/09 08:09:44;;;;;;;9.55;6.63;;;21.10;99.90;;;;;;4135840;28;20122;-71
2021/07/09 08:11:44;;;;;;;9.23;6.85;;;21.30;99.90;;;;;;4135128;28;20042;-72
2021/07/09 08:13:45;;;;;;;10.10;7.28;;;21.30;99.90;;;;;;4131742;28;20050;-72
2021/07/09 08:15:46;;;;;;;9.30;6.88;;;21.30;99.90;;;;;;4133344;28;20129;-71
2021/07/09 08:17:46;;;;;;;6.15;4.97;;;21.40;99.90;;;;;;4135815;28;20069;-71
2021/07/09 08:19:47;;;;;;;13.60;6.25;;;21.50;99.90;;;;;;4135646;28;20059;-72
2021/07/09 08:21:48;;;;;;;10.05;6.18;;;21.50;99.90;;;;;;4135829;28;20850;-71
2021/07/09 08:23:48;;;;;;;9.95;5.97;;;21.60;99.90;;;;;;4137467;28;20081;-72
2021/07/09 08:25:49;;;;;;;8.77;6.32;;;21.70;99.90;;;;;;4136444;28;20046;-72
2021/07/09 08:27:50;;;;;;;14.95;8.68;;;21.80;99.90;;;;;;4134912;28;20046;-72
2021/07/09 08:29:50;;;;;;;12.55;7.85;;;21.80;99.90;;;;;;4133207;28;20457;-72
2021/07/09 08:31:52;;;;;;;15.40;8.48;;;21.90;99.90;;;;;;4135279;28;20537;-72
2021/07/09 08:33:52;;;;;;;11.63;8.10;;;22.00;99.90;;;;;;4135840;28;20137;-72
2021/07/09 08:35:53;;;;;;;13.13;8.23;;;22.00;99.90;;;;;;4131207;28;20568;-72
2021/07/09 08:37:53;;;;;;;12.48;7.57;;;22.00;99.90;;;;;;4136659;28;20418;-72
2021/07/09 08:39:54;;;;;;;8.80;6.95;;;22.10;99.90;;;;;;4137615;28;20191;-72
2021/07/09 08:41:56;;;;;;;8.48;5.97;;;22.10;99.90;;;;;;4135051;28;20100;-72
2021/07/09 08:43:56;;;;;;;9.65;5.82;;;22.20;99.90;;;;;;4136196;28;20505;-72
2021/07/09 08:45:57;;;;;;;7.85;5.40;;;22.30;99.90;;;;;;4135457;28;20049;-71
2021/07/09 08:48:00;;;;;;;6.88;4.85;;;22.30;99.90;;;;;;4135039;28;20514;-72
2021/07/09 08:50:07;;;;;;;7.03;4.40;;;22.20;99.90;;;;;;4132931;28;20127;-72
2021/07/09 08:52:08;;;;;;;6.80;5.30;;;22.30;99.90;;;;;;4131066;28;20033;-72
2021/07/09 08:54:13;;;;;;;9.20;5.60;;;22.30;99.90;;;;;;4134984;28;20474;-72
2021/07/09 08:56:15;;;;;;;7.57;5.30;;;22.40;99.90;;;;;;4135357;28;20490;-72
2021/07/09 08:58:15;;;;;;;9.55;5.40;;;22.50;99.90;;;;;;4132381;28;20117;-72
2021/07/09 09:00:34;;;;;;;6.30;4.53;;;22.60;99.90;;;;;;4134719;28;20081;-72
2021/07/09 09:02:45;;;;;;;8.30;4.78;;;22.70;99.90;;;;;;4135180;28;20088;-72
2021/07/09 09:04:46;;;;;;;8.63;5.32;;;22.80;99.90;;;;;;4134101;28;20118;-72
2021/07/09 09:06:59;;;;;;;7.68;4.88;;;23.00;99.90;;;;;;4134895;28;20071;-72
2021/07/09 09:09:11;;;;;;;;;;;23.00;99.90;;;;;;4134150;28;20099;-72
2021/07/09 09:11:12;;;;;;;5.93;4.20;;;23.10;99.90;;;;;;4132163;28;19937;-72
2021/07/09 09:13:19;;;;;;;4.78;3.75;;;23.20;99.90;;;;;;4135383;28;20034;-72
2021/07/09 09:15:24;;;;;;;6.65;4.88;;;23.20;99.90;;;;;;4133850;28;20453;-72
2021/07/09 09:17:31;;;;;;;6.53;4.40;;;23.30;99.90;;;;;;4134541;28;20030;-72
2021/07/09 09:19:32;;;;;;;5.75;3.72;;;23.40;99.90;;;;;;4136036;28;20030;-72
2021/07/09 09:21:33;;;;;;;9.18;5.22;;;23.50;99.90;;;;;;4134190;28;20042;-72
2021/07/09 09:23:35;;;;;;;6.70;4.38;;;23.60;99.90;;;;;;4117447;28;20109;-72
2021/07/09 09:25:38;;;;;;;5.93;3.83;;;23.70;99.90;;;;;;4129378;28;20097;-72
2021/07/09 09:27:39;;;;;;;;;;;23.80;99.90;;;;;;4133499;28;20026;-72
2021/07/09 09:29:39;;;;;;;5.75;3.55;;;23.80;99.90;;;;;;4134640;28;19928;-71
2021/07/09 09:31:40;;;;;;;4.97;3.45;;;23.80;99.90;;;;;;4113607;28;20066;-71
2021/07/09 09:33:41;;;;;;;4.97;3.53;;;23.90;99.90;;;;;;4133318;28;20042;-72
2021/07/09 09:35:44;;;;;;;5.00;3.40;;;23.90;99.90;;;;;;4134893;28;20486;-72
2021/07/09 09:37:54;;;;;;;5.15;3.70;;;24.00;99.90;;;;;;4134174;28;20511;-72
2021/07/09 09:39:54;;;;;;;7.40;4.60;;;24.10;99.90;;;;;;4125224;28;20061;-72
2021/07/09 09:42:21;;;;;;;5.07;3.67;;;24.10;99.90;;;;;;4135474;28;20936;-72
2021/07/09 09:44:21;;;;;;;3.33;2.88;;;24.00;99.90;;;;;;4134571;28;20048;-72
2021/07/09 09:46:28;;;;;;;4.78;2.95;;;23.90;99.90;;;;;;4134876;28;20787;-72
2021/07/09 09:48:45;;;;;;;4.43;2.97;;;23.90;99.90;;;;;;4116490;28;20723;-72
2021/07/09 09:50:48;;;;;;;5.32;3.05;;;23.90;99.90;;;;;;4127038;28;20030;-72
2021/07/09 09:52:51;;;;;;;3.95;2.70;;;23.90;99.90;;;;;;4131948;28;20121;-72
2021/07/09 09:54:52;;;;;;;2.55;2.35;;;23.90;99.90;;;;;;4137769;28;20538;-72
2021/07/09 09:56:52;;;;;;;3.92;2.67;;;23.90;99.90;;;;;;4136433;28;20037;-72
2021/07/09 09:59:15;;;;;;;3.42;2.42;;;24.00;99.90;;;;;;4136224;28;20073;-72
2021/07/09 10:01:30;;;;;;;2.95;2.17;;;24.00;99.90;;;;;;4133932;28;20061;-72
2021/07/09 10:03:30;;;;;;;2.47;2.08;;;24.00;99.90;;;;;;4134397;28;20060;-72
2021/07/09 10:05:38;;;;;;;2.47;1.98;;;24.00;99.90;;;;;;4133939;28;20477;-72
2021/07/09 10:07:39;;;;;;;3.28;2.00;;;24.10;99.90;;;;;;4132701;28;20042;-72
2021/07/09 10:09:40;;;;;;;3.20;1.80;;;24.10;99.90;;;;;;4135161;28;20440;-72
2021/07/09 10:11:42;;;;;;;2.65;1.52;;;24.10;99.90;;;;;;4133980;28;20514;-72
2021/07/09 10:13:44;;;;;;;3.13;1.77;;;24.10;99.90;;;;;;4135695;28;20536;-72
2021/07/09 10:15:48;;;;;;;3.33;1.80;;;24.10;99.90;;;;;;4134076;28;20057;-72
2021/07/09 10:17:50;;;;;;;3.40;2.15;;;24.10;99.90;;;;;;4134209;28;20112;-72
2021/07/09 10:19:53;;;;;;;1.83;1.63;;;24.10;99.90;;;;;;4133913;28;20125;-72
2021/07/09 10:21:54;;;;;;;2.88;1.75;;;24.10;99.90;;;;;;4133205;28;20060;-72
2021/07/09 10:23:54;;;;;;;2.33;1.60;;;24.20;99.90;;;;;;4134532;28;20070;-72
2021/07/09 10:25:56;;;;;;;1.92;1.67;;;24.20;99.90;;;;;;4134190;28;20045;-72
2021/07/09 10:27:57;;;;;;;3.03;1.45;;;24.30;99.90;;;;;;4133265;28;20042;-72